Asahikawa, Japan
Current Conditions -  °F | °C
As of 10:00 AM on Tuesday 25 Nov 2014 (Local Time) from RJEC Reporting Station
Few Clouds Few Clouds  
Wind Chill: 25°   Ceiling: Unl
Heat Index: 34°   Visibility: 6mi
Dew Point: 25°   Wind: 12mph
Humidity: 70%   Direction: 330°NNW
Pressure: 30.09"   Gusts: NA
Location:  43.77°N, 142.36°E
Report Text: RJEC 250100Z 33010KT 9999 FEW025 01/M04 Q1019
Loading
Personal Weather Stations






























Interactive Weather Map New forecast layout! Learn more

10-Day Weather Forecast

Advertisements
Track Severe Weather on mobile